Time;durP1;ratioP1;P1;durP2;ratioP2;P2;SDS_P1;SDS_P2;PMS_P1;PMS_P2;Temp;Humidity;BMP_temperature;BMP_pressure;BME280_temperature;BME280_humidity;BME280_pressure;Samples;Min_cycle;Max_cycle;Signal;HPM_P1;HPM_P2
2023/12/16 00:00:12;;;;;;;38.60;15.83;;;6.60;99.90;;;;;;5030132;28;20284;-69
2023/12/16 00:02:39;;;;;;;35.07;15.53;;;6.60;99.90;;;;;;5049854;28;20243;-69
2023/12/16 00:05:08;;;;;;;39.80;16.87;;;6.60;99.90;;;;;;5035150;28;20283;-69
2023/12/16 00:07:35;;;;;;;37.80;16.27;;;6.60;99.90;;;;;;5028994;28;20279;-69
2023/12/16 00:10:03;;;;;;;43.97;17.70;;;6.60;99.90;;;;;;5048547;28;20258;-69
2023/12/16 00:12:30;;;;;;;49.37;16.27;;;6.60;99.90;;;;;;5049367;28;20298;-69
2023/12/16 00:14:57;;;;;;;45.27;17.50;;;6.70;99.90;;;;;;5048874;28;20319;-69
2023/12/16 00:17:24;;;;;;;44.37;16.97;;;6.70;99.90;;;;;;5049509;28;20318;-68
2023/12/16 00:19:52;;;;;;;39.83;16.37;;;6.70;99.90;;;;;;5049325;28;20234;-71
2023/12/16 00:22:20;;;;;;;37.30;16.20;;;6.70;99.90;;;;;;5048855;28;20477;-71
2023/12/16 00:24:48;;;;;;;46.40;17.17;;;6.70;99.90;;;;;;5049025;28;20220;-72
2023/12/16 00:27:20;;;;;;;40.47;15.87;;;6.70;99.90;;;;;;5042130;28;20220;-73
2023/12/16 00:29:48;;;;;;;43.23;17.13;;;6.70;99.90;;;;;;5048122;28;20196;-72
2023/12/16 00:32:19;;;;;;;44.27;16.83;;;6.70;99.90;;;;;;5040405;28;20289;-71
2023/12/16 00:34:45;;;;;;;39.27;17.00;;;6.70;99.90;;;;;;5029025;28;20205;-68
2023/12/16 00:37:12;;;;;;;44.27;16.57;;;6.70;99.90;;;;;;5028706;28;20233;-68
2023/12/16 00:39:39;;;;;;;41.47;17.33;;;6.70;99.90;;;;;;5030664;28;20228;-68
2023/12/16 00:42:07;;;;;;;53.50;18.20;;;6.70;99.90;;;;;;5048704;28;20291;-67
2023/12/16 00:44:35;;;;;;;39.73;16.90;;;6.70;99.90;;;;;;5049134;28;20236;-68
2023/12/16 00:47:02;;;;;;;41.90;17.30;;;6.70;99.90;;;;;;5048597;28;20208;-68
2023/12/16 00:49:29;;;;;;;42.03;16.10;;;6.70;99.90;;;;;;5048418;28;20232;-68
2023/12/16 00:51:56;;;;;;;41.63;16.17;;;6.70;99.90;;;;;;5045556;28;20204;-68
2023/12/16 00:54:23;;;;;;;46.73;16.37;;;6.70;99.90;;;;;;5028958;28;20208;-68
2023/12/16 00:56:51;;;;;;;35.57;16.30;;;6.70;99.90;;;;;;5034778;28;20211;-68
2023/12/16 00:59:17;;;;;;;42.60;16.60;;;6.70;99.90;;;;;;5028718;28;20327;-68
2023/12/16 01:01:46;;;;;;;44.07;17.83;;;6.70;99.90;;;;;;5029068;28;20243;-68
2023/12/16 01:04:12;;;;;;;41.17;17.20;;;6.70;99.90;;;;;;5030063;28;20252;-68
2023/12/16 01:06:39;;;;;;;41.97;16.83;;;6.70;99.90;;;;;;5047980;28;20291;-68
2023/12/16 01:09:07;;;;;;;42.87;15.53;;;6.70;99.90;;;;;;5047375;28;20695;-68
2023/12/16 01:11:34;;;;;;;36.90;15.87;;;6.70;99.90;;;;;;5034381;28;20212;-68
2023/12/16 01:14:01;;;;;;;35.07;15.43;;;6.70;99.90;;;;;;5030501;28;20235;-67
2023/12/16 01:16:27;;;;;;;35.50;16.70;;;6.70;99.90;;;;;;5047823;28;20239;-67
2023/12/16 01:18:56;;;;;;;39.83;16.07;;;6.70;99.90;;;;;;5047756;28;20325;-67
2023/12/16 01:21:23;;;;;;;36.03;15.40;;;6.70;99.90;;;;;;5047893;28;20283;-67
2023/12/16 01:23:49;;;;;;;32.50;14.77;;;6.70;99.90;;;;;;5047919;28;20243;-67
2023/12/16 01:26:16;;;;;;;37.67;15.30;;;6.80;99.90;;;;;;5047906;28;20212;-68
2023/12/16 01:28:43;;;;;;;33.93;15.50;;;6.70;99.90;;;;;;5047674;28;20211;-68
2023/12/16 01:31:10;;;;;;;40.67;16.47;;;6.80;99.90;;;;;;5047769;28;20289;-68
2023/12/16 01:33:37;;;;;;;36.33;15.27;;;6.80;99.90;;;;;;5047626;28;20287;-68
2023/12/16 01:36:06;;;;;;;39.97;14.93;;;6.80;99.90;;;;;;5047674;28;20206;-68
2023/12/16 01:38:33;;;;;;;38.80;15.80;;;6.80;99.90;;;;;;5046831;28;20250;-68
2023/12/16 01:41:00;;;;;;;42.53;15.20;;;6.80;99.90;;;;;;5047473;28;20315;-68
2023/12/16 01:43:27;;;;;;;37.83;15.10;;;6.80;99.90;;;;;;5047645;28;20614;-67
2023/12/16 01:46:02;;;;;;;32.93;15.13;;;6.80;99.90;;;;;;5041657;28;20200;-68
2023/12/16 01:48:30;;;;;;;36.97;15.23;;;6.80;99.90;;;;;;5047290;28;20238;-68
2023/12/16 01:50:57;;;;;;;37.50;15.27;;;6.80;99.90;;;;;;5047423;28;20204;-68
2023/12/16 01:53:27;;;;;;;26.87;14.03;;;6.80;99.90;;;;;;5038458;28;20236;-68
2023/12/16 01:55:54;;;;;;;39.50;15.27;;;6.80;99.90;;;;;;5047408;28;20295;-68
2023/12/16 01:58:23;;;;;;;38.50;15.13;;;6.80;99.90;;;;;;5047338;28;20281;-68
2023/12/16 02:00:52;;;;;;;33.73;14.20;;;6.80;99.90;;;;;;5047087;28;20216;-68
2023/12/16 02:03:20;;;;;;;36.20;15.10;;;6.80;99.90;;;;;;5047445;28;20227;-68
2023/12/16 02:05:47;;;;;;;30.17;13.97;;;6.80;99.90;;;;;;5047372;28;20303;-67
2023/12/16 02:08:14;;;;;;;32.37;14.60;;;6.80;99.90;;;;;;5046746;28;20227;-67
2023/12/16 02:10:42;;;;;;;36.70;13.97;;;6.80;99.90;;;;;;5047282;28;20295;-67
2023/12/16 02:13:09;;;;;;;38.03;13.93;;;6.80;99.90;;;;;;5047184;28;20700;-67
2023/12/16 02:15:36;;;;;;;30.53;13.47;;;6.80;99.90;;;;;;5047260;28;20646;-67
2023/12/16 02:18:03;;;;;;;29.23;13.63;;;6.80;99.90;;;;;;5046983;28;20327;-67
2023/12/16 02:20:30;;;;;;;28.63;13.80;;;6.80;99.90;;;;;;5046882;28;20243;-68
2023/12/16 02:22:58;;;;;;;29.50;14.07;;;6.80;99.90;;;;;;5047189;28;20208;-68
2023/12/16 02:25:26;;;;;;;37.97;14.47;;;6.80;99.90;;;;;;5046930;28;20722;-68
2023/12/16 02:27:53;;;;;;;31.10;13.77;;;6.80;99.90;;;;;;5046821;28;20303;-68
2023/12/16 02:30:23;;;;;;;31.37;14.67;;;6.80;99.90;;;;;;5031430;28;20355;-68
2023/12/16 02:32:52;;;;;;;28.77;14.13;;;6.80;99.90;;;;;;5027123;28;20220;-68
2023/12/16 02:35:19;;;;;;;32.40;14.60;;;6.80;99.90;;;;;;5026698;28;20215;-68
2023/12/16 02:37:46;;;;;;;36.93;15.67;;;6.80;99.90;;;;;;5026831;28;20670;-68
2023/12/16 02:40:13;;;;;;;37.47;15.43;;;6.80;99.90;;;;;;5029405;28;20216;-68
2023/12/16 02:42:42;;;;;;;35.73;15.70;;;6.90;99.90;;;;;;5046548;28;20227;-68
2023/12/16 02:45:09;;;;;;;38.00;15.70;;;6.80;99.90;;;;;;5046211;28;20741;-68
2023/12/16 02:47:36;;;;;;;36.30;15.97;;;6.90;99.90;;;;;;5027719;28;20288;-68
2023/12/16 02:50:03;;;;;;;37.60;16.43;;;6.90;99.90;;;;;;5035566;28;20224;-68
2023/12/16 02:52:30;;;;;;;37.27;15.43;;;6.90;99.90;;;;;;5030176;28;20757;-68
2023/12/16 02:54:57;;;;;;;31.00;16.20;;;6.90;99.90;;;;;;5026831;28;20296;-68
2023/12/16 02:57:24;;;;;;;40.40;16.70;;;6.80;99.90;;;;;;5034027;28;20312;-68
2023/12/16 02:59:52;;;;;;;37.30;16.70;;;6.90;99.90;;;;;;5046300;28;20634;-68
2023/12/16 03:02:19;;;;;;;44.23;17.23;;;6.90;99.90;;;;;;5046700;28;20321;-68
2023/12/16 03:04:46;;;;;;;31.80;16.83;;;6.90;99.90;;;;;;5050577;28;20291;-68
2023/12/16 03:07:13;;;;;;;40.87;17.90;;;6.90;99.90;;;;;;5050226;28;20641;-68
2023/12/16 03:09:40;;;;;;;39.37;18.47;;;6.90;99.90;;;;;;5050350;28;20200;-68
2023/12/16 03:12:08;;;;;;;39.17;17.57;;;7.00;99.90;;;;;;5050231;28;20204;-68
2023/12/16 03:14:37;;;;;;;40.40;19.17;;;6.90;99.90;;;;;;5050468;28;20235;-68
2023/12/16 03:17:06;;;;;;;41.50;18.07;;;7.00;99.90;;;;;;5049968;28;20239;-68
2023/12/16 03:19:33;;;;;;;42.63;18.63;;;7.00;99.90;;;;;;5050469;28;20255;-68
2023/12/16 03:21:59;;;;;;;42.13;18.57;;;7.00;99.90;;;;;;5050315;28;20299;-68
2023/12/16 03:24:26;;;;;;;43.33;18.47;;;7.00;99.90;;;;;;5033346;28;20342;-68
2023/12/16 03:26:53;;;;;;;42.07;18.87;;;7.00;99.90;;;;;;5031857;28;20327;-68
2023/12/16 03:29:20;;;;;;;41.97;19.13;;;7.00;99.90;;;;;;5030682;28;20306;-67
2023/12/16 03:31:47;;;;;;;41.87;19.03;;;7.00;99.90;;;;;;5030610;28;20302;-67
2023/12/16 03:34:15;;;;;;;42.40;20.00;;;7.00;99.90;;;;;;5030095;28;20304;-67
2023/12/16 03:36:42;;;;;;;39.60;19.43;;;7.00;99.90;;;;;;5030162;28;20205;-67
2023/12/16 03:39:09;;;;;;;42.90;19.77;;;7.00;99.90;;;;;;5030170;28;20260;-68
2023/12/16 03:41:36;;;;;;;40.10;19.33;;;7.10;99.90;;;;;;5044015;28;20746;-68
2023/12/16 03:44:03;;;;;;;40.47;21.00;;;7.10;99.90;;;;;;5029782;28;20207;-67
2023/12/16 03:46:29;;;;;;;46.40;18.90;;;7.10;99.90;;;;;;5040841;28;20751;-67
2023/12/16 03:48:55;;;;;;;45.97;20.43;;;7.10;99.90;;;;;;5049876;28;20256;-67
2023/12/16 03:51:24;;;;;;;46.50;20.13;;;7.10;99.90;;;;;;5049904;28;20680;-68
2023/12/16 03:53:50;;;;;;;42.07;20.30;;;7.10;99.90;;;;;;5049348;28;20904;-68
2023/12/16 03:56:17;;;;;;;47.63;20.83;;;7.10;99.90;;;;;;5049863;28;20304;-68
2023/12/16 03:58:44;;;;;;;42.77;19.40;;;7.00;99.90;;;;;;5049749;28;20334;-68
2023/12/16 04:01:13;;;;;;;37.07;19.20;;;7.00;99.90;;;;;;5049719;28;20322;-68
2023/12/16 04:03:40;;;;;;;45.37;19.93;;;7.00;99.90;;;;;;5036868;28;20200;-68
2023/12/16 04:06:11;;;;;;;48.87;19.77;;;7.00;99.90;;;;;;5029713;28;20213;-68
2023/12/16 04:08:39;;;;;;;33.90;18.40;;;7.00;99.90;;;;;;5029443;28;20333;-68
2023/12/16 04:11:06;;;;;;;39.57;18.67;;;7.00;99.90;;;;;;5039613;28;20298;-68
2023/12/16 04:13:34;;;;;;;40.57;18.33;;;7.00;99.90;;;;;;5048988;28;20214;-68
2023/12/16 04:16:01;;;;;;;40.20;18.03;;;7.00;99.90;;;;;;5049352;28;20208;-68
2023/12/16 04:18:28;;;;;;;37.53;18.10;;;7.00;99.90;;;;;;5046016;28;20315;-68
2023/12/16 04:20:56;;;;;;;42.07;19.47;;;7.10;99.90;;;;;;5045252;28;20726;-68
2023/12/16 04:23:22;;;;;;;37.97;17.93;;;7.00;99.90;;;;;;5049445;28;20204;-68
2023/12/16 04:25:51;;;;;;;35.03;17.20;;;7.00;99.90;;;;;;5049135;28;20705;-68
2023/12/16 04:28:18;;;;;;;36.43;17.63;;;7.10;99.90;;;;;;5049418;28;20292;-68
2023/12/16 04:30:44;;;;;;;35.50;17.33;;;7.10;99.90;;;;;;5049263;28;20295;-68
2023/12/16 04:33:11;;;;;;;38.80;18.20;;;7.00;99.90;;;;;;5048740;28;20295;-68
2023/12/16 04:35:38;;;;;;;37.90;17.27;;;7.10;99.90;;;;;;5048806;28;20208;-68
2023/12/16 04:38:05;;;;;;;35.83;17.07;;;7.10;99.90;;;;;;5049023;28;20196;-68
2023/12/16 04:40:32;;;;;;;37.17;17.67;;;7.00;99.90;;;;;;5048879;28;20246;-69
2023/12/16 04:43:00;;;;;;;41.67;17.77;;;7.00;99.90;;;;;;5061504;28;20634;-68
2023/12/16 04:45:27;;;;;;;37.33;17.20;;;7.00;99.90;;;;;;5068933;28;20294;-68
2023/12/16 04:47:54;;;;;;;34.53;17.30;;;7.00;99.90;;;;;;5038720;28;20259;-68
2023/12/16 04:50:21;;;;;;;34.67;17.03;;;7.00;99.90;;;;;;5028610;28;20228;-68
2023/12/16 04:52:47;;;;;;;34.77;18.00;;;7.00;99.90;;;;;;5028936;28;20287;-68
2023/12/16 04:55:15;;;;;;;41.60;17.37;;;7.00;99.90;;;;;;5029012;28;20231;-68
2023/12/16 04:57:42;;;;;;;33.50;17.03;;;7.00;99.90;;;;;;5028643;28;20729;-68
2023/12/16 05:00:12;;;;;;;31.33;16.67;;;7.00;99.90;;;;;;5034628;28;20216;-68
2023/12/16 05:02:39;;;;;;;32.07;16.23;;;7.00;99.90;;;;;;5048605;28;20291;-68
2023/12/16 05:05:06;;;;;;;36.43;16.93;;;7.00;99.90;;;;;;5048301;28;20247;-69
2023/12/16 05:07:33;;;;;;;33.27;16.47;;;6.90;99.90;;;;;;5048193;28;20327;-68
2023/12/16 05:10:00;;;;;;;30.57;16.07;;;6.90;99.90;;;;;;5048175;28;20813;-68
2023/12/16 05:12:27;;;;;;;33.53;15.90;;;6.90;99.90;;;;;;5048539;28;20211;-68
2023/12/16 05:14:54;;;;;;;38.93;16.10;;;6.90;99.90;;;;;;5048582;28;20692;-68
2023/12/16 05:17:23;;;;;;;30.13;15.47;;;6.90;99.90;;;;;;5048573;28;20310;-68
2023/12/16 05:19:50;;;;;;;35.43;16.40;;;6.80;99.90;;;;;;5043084;28;20259;-68
2023/12/16 05:22:16;;;;;;;31.23;15.30;;;6.90;99.90;;;;;;5028759;28;20294;-68
2023/12/16 05:24:43;;;;;;;34.97;15.47;;;6.80;99.90;;;;;;5028305;28;20711;-68
2023/12/16 05:27:10;;;;;;;33.03;15.73;;;6.80;99.90;;;;;;5027852;28;20751;-68
2023/12/16 05:29:40;;;;;;;31.60;15.20;;;6.80;99.90;;;;;;5028134;28;20746;-68
2023/12/16 05:32:07;;;;;;;31.90;15.33;;;6.80;99.90;;;;;;5028028;28;20252;-68
2023/12/16 05:34:35;;;;;;;31.37;14.53;;;6.80;99.90;;;;;;5028178;28;20240;-68
2023/12/16 05:37:02;;;;;;;31.87;14.53;;;6.80;99.90;;;;;;5028248;28;21089;-68
2023/12/16 05:39:29;;;;;;;24.73;14.10;;;6.80;99.90;;;;;;5043133;28;20298;-68
2023/12/16 05:41:56;;;;;;;26.83;13.50;;;6.80;99.90;;;;;;5038196;28;20236;-69
2023/12/16 05:44:23;;;;;;;24.00;13.30;;;6.90;99.90;;;;;;5048039;28;20243;-68
2023/12/16 05:46:51;;;;;;;28.93;13.20;;;6.90;99.90;;;;;;5047838;28;20581;-68
2023/12/16 05:49:18;;;;;;;30.63;13.97;;;6.80;99.90;;;;;;5037326;28;20229;-68
2023/12/16 05:51:46;;;;;;;29.33;13.17;;;6.90;99.90;;;;;;5028065;28;20208;-68
2023/12/16 05:54:13;;;;;;;32.97;14.17;;;6.90;99.90;;;;;;5027543;28;20209;-68
2023/12/16 05:56:40;;;;;;;27.90;12.83;;;6.90;99.90;;;;;;5029738;28;20213;-68
2023/12/16 05:59:07;;;;;;;26.57;12.17;;;6.90;99.90;;;;;;5047637;28;20586;-67
2023/12/16 06:01:34;;;;;;;22.70;11.83;;;6.90;99.90;;;;;;5047569;28;20250;-67
2023/12/16 06:04:01;;;;;;;30.97;13.30;;;6.90;99.90;;;;;;5036578;28;20205;-67
2023/12/16 06:06:30;;;;;;;25.43;12.60;;;6.90;99.90;;;;;;5047523;28;20203;-67
2023/12/16 06:08:58;;;;;;;24.73;11.80;;;6.90;99.90;;;;;;5046924;28;20271;-67
2023/12/16 06:11:25;;;;;;;22.33;11.77;;;6.90;99.90;;;;;;5047210;28;20299;-67
2023/12/16 06:13:52;;;;;;;24.50;12.30;;;6.90;99.90;;;;;;5044575;28;20296;-67
2023/12/16 06:16:19;;;;;;;19.80;10.23;;;6.90;99.90;;;;;;5027293;28;20251;-67
2023/12/16 06:18:47;;;;;;;23.60;10.80;;;6.90;99.90;;;;;;5026964;28;20723;-67
2023/12/16 06:21:14;;;;;;;20.93;11.13;;;6.90;99.90;;;;;;5026713;28;20208;-67
2023/12/16 06:23:41;;;;;;;28.47;12.10;;;6.90;99.90;;;;;;5027218;28;20594;-67
2023/12/16 06:26:09;;;;;;;27.20;11.53;;;7.00;99.90;;;;;;5027320;28;20236;-67
2023/12/16 06:28:36;;;;;;;19.97;10.83;;;6.90;99.90;;;;;;5027096;28;20292;-67
2023/12/16 06:31:03;;;;;;;26.17;10.50;;;7.00;99.90;;;;;;5026597;28;20711;-67
2023/12/16 06:33:30;;;;;;;23.93;9.80;;;7.00;99.90;;;;;;5026949;28;20213;-67
2023/12/16 06:35:57;;;;;;;24.03;10.37;;;7.00;99.90;;;;;;5042547;28;20294;-67
2023/12/16 06:38:24;;;;;;;18.87;9.80;;;7.00;99.90;;;;;;5045996;28;20622;-68
2023/12/16 06:40:51;;;;;;;19.97;9.90;;;7.10;99.90;;;;;;5038220;28;20248;-68
2023/12/16 06:43:19;;;;;;;24.90;10.43;;;7.10;99.90;;;;;;5046011;28;20287;-68
2023/12/16 06:45:46;;;;;;;23.33;9.00;;;7.10;99.90;;;;;;5046517;28;20203;-68
2023/12/16 06:48:13;;;;;;;21.40;9.37;;;7.10;99.90;;;;;;5046439;28;20212;-68
2023/12/16 06:50:40;;;;;;;20.53;9.33;;;7.10;99.90;;;;;;5046825;28;20216;-68
2023/12/16 06:53:08;;;;;;;20.20;9.73;;;7.10;99.90;;;;;;5046306;28;20298;-67
2023/12/16 06:55:35;;;;;;;20.07;9.27;;;7.10;99.90;;;;;;5046572;28;20622;-68
2023/12/16 06:58:02;;;;;;;19.83;8.87;;;7.10;99.90;;;;;;5037007;28;20258;-68
2023/12/16 07:00:30;;;;;;;20.03;8.63;;;7.10;99.90;;;;;;5046332;28;20267;-68
2023/12/16 07:02:57;;;;;;;18.80;8.83;;;7.10;99.90;;;;;;5046536;28;20864;-68
2023/12/16 07:05:25;;;;;;;17.83;9.07;;;7.20;99.90;;;;;;5046616;28;20242;-68
2023/12/16 07:07:52;;;;;;;18.97;8.30;;;7.20;99.90;;;;;;5043488;28;20228;-68
2023/12/16 07:10:19;;;;;;;17.73;8.37;;;7.20;99.90;;;;;;5040954;28;20211;-68
2023/12/16 07:12:46;;;;;;;23.53;8.97;;;7.20;99.90;;;;;;5046261;28;20204;-68
2023/12/16 07:15:13;;;;;;;18.87;7.97;;;7.20;99.90;;;;;;5046299;28;20204;-68
2023/12/16 07:17:41;;;;;;;17.57;8.60;;;7.20;99.90;;;;;;5036017;28;20212;-68
2023/12/16 07:20:09;;;;;;;18.87;9.47;;;7.20;99.90;;;;;;5026054;28;20758;-69
2023/12/16 07:22:36;;;;;;;21.93;9.10;;;7.20;99.90;;;;;;5026554;28;20295;-69
2023/12/16 07:25:03;;;;;;;19.83;8.50;;;7.10;99.90;;;;;;5027536;28;20299;-68
2023/12/16 07:27:30;;;;;;;13.50;8.10;;;7.20;99.90;;;;;;5026353;28;20642;-67
2023/12/16 07:29:57;;;;;;;17.57;9.30;;;7.10;99.90;;;;;;5026296;28;20204;-67
2023/12/16 07:32:24;;;;;;;17.03;8.30;;;7.20;99.90;;;;;;5044297;28;20901;-69
2023/12/16 07:34:52;;;;;;;19.53;8.10;;;7.20;99.90;;;;;;5046161;28;20832;-68
2023/12/16 07:37:20;;;;;;;16.70;8.03;;;7.20;99.90;;;;;;5042578;28;20197;-68
2023/12/16 07:39:48;;;;;;;17.27;8.67;;;7.30;99.90;;;;;;5042777;28;20310;-69
2023/12/16 07:42:15;;;;;;;13.77;7.93;;;7.20;99.90;;;;;;5037316;28;20212;-69
2023/12/16 07:44:41;;;;;;;15.30;7.10;;;7.30;99.90;;;;;;5045955;28;20298;-69
2023/12/16 07:47:08;;;;;;;18.83;7.67;;;7.20;99.90;;;;;;5045917;28;20204;-69
2023/12/16 07:49:35;;;;;;;16.80;6.87;;;7.30;99.90;;;;;;5048463;28;20220;-69
2023/12/16 07:52:04;;;;;;;15.37;6.93;;;7.30;99.90;;;;;;5049919;28;20303;-69
2023/12/16 07:54:33;;;;;;;16.10;8.07;;;7.30;99.90;;;;;;5050312;28;20298;-69
2023/12/16 07:57:00;;;;;;;14.67;7.27;;;7.30;99.90;;;;;;5048647;28;20291;-69
2023/12/16 07:59:27;;;;;;;16.93;7.10;;;7.30;99.90;;;;;;5049819;28;20262;-69
2023/12/16 08:01:55;;;;;;;12.47;6.67;;;7.30;99.90;;;;;;5049916;28;20240;-69
2023/12/16 08:04:23;;;;;;;14.70;6.50;;;7.30;99.90;;;;;;5046407;28;20213;-69
2023/12/16 08:06:50;;;;;;;13.10;6.63;;;7.40;99.90;;;;;;5044923;28;20208;-69
2023/12/16 08:09:18;;;;;;;13.90;6.80;;;7.40;99.90;;;;;;5029418;28;20276;-68
2023/12/16 08:11:45;;;;;;;13.07;6.57;;;7.40;99.90;;;;;;5045347;28;20204;-68
2023/12/16 08:14:12;;;;;;;11.53;6.37;;;7.30;99.90;;;;;;5049266;28;20204;-69
2023/12/16 08:16:40;;;;;;;13.57;6.70;;;7.40;99.90;;;;;;5049269;28;20212;-68
2023/12/16 08:19:07;;;;;;;14.17;6.50;;;7.40;99.90;;;;;;5048967;28;20273;-69
2023/12/16 08:21:34;;;;;;;16.33;6.87;;;7.40;99.90;;;;;;5049020;28;20727;-69
2023/12/16 08:24:00;;;;;;;13.70;6.53;;;7.40;99.90;;;;;;5049210;28;20212;-69
2023/12/16 08:26:29;;;;;;;10.43;6.30;;;7.40;99.90;;;;;;5049025;28;20283;-69
2023/12/16 08:28:56;;;;;;;11.30;6.17;;;7.40;99.90;;;;;;5036895;28;20313;-69
2023/12/16 08:31:22;;;;;;;12.97;6.30;;;7.40;99.90;;;;;;5028695;28;20355;-69
2023/12/16 08:33:49;;;;;;;14.60;6.87;;;7.50;99.90;;;;;;5033002;28;20203;-70
2023/12/16 08:36:16;;;;;;;12.47;6.80;;;7.40;99.90;;;;;;5048503;28;20216;-70
2023/12/16 08:38:44;;;;;;;13.03;6.20;;;7.40;99.90;;;;;;5049071;28;20300;-70
2023/12/16 08:41:12;;;;;;;12.80;6.53;;;7.40;99.90;;;;;;5048028;28;20671;-68
2023/12/16 08:43:41;;;;;;;21.43;8.53;;;7.40;99.90;;;;;;5048747;28;20252;-68
2023/12/16 08:46:09;;;;;;;33.63;17.87;;;7.40;99.90;;;;;;5048425;28;20689;-68
2023/12/16 08:48:36;;;;;;;9.27;5.27;;;7.50;99.90;;;;;;5048576;28;20322;-69
2023/12/16 08:51:03;;;;;;;13.50;5.30;;;7.60;99.90;;;;;;5048756;28;20269;-69
2023/12/16 08:53:30;;;;;;;9.33;4.80;;;7.60;99.90;;;;;;5048131;28;20212;-69
2023/12/16 08:55:57;;;;;;;11.50;4.57;;;7.60;99.90;;;;;;5048338;28;20295;-69
2023/12/16 08:58:24;;;;;;;15.00;4.77;;;7.60;99.90;;;;;;5048461;28;20216;-69
2023/12/16 09:00:53;;;;;;;9.53;4.80;;;7.60;99.90;;;;;;5047284;28;20239;-69
2023/12/16 09:03:20;;;;;;;9.43;4.77;;;7.70;99.90;;;;;;5048395;28;20295;-69
2023/12/16 09:05:47;;;;;;;8.03;4.20;;;7.70;99.90;;;;;;5048513;28;20258;-69
2023/12/16 09:08:14;;;;;;;10.70;4.30;;;7.60;99.90;;;;;;5048110;28;20259;-69
2023/12/16 09:10:41;;;;;;;9.67;3.87;;;7.70;99.90;;;;;;5048446;28;20255;-69
2023/12/16 09:13:08;;;;;;;8.27;4.23;;;7.70;99.90;;;;;;5047767;28;20204;-69
2023/12/16 09:15:35;;;;;;;7.97;3.47;;;7.70;99.90;;;;;;5035348;28;20758;-69
2023/12/16 09:18:03;;;;;;;12.10;4.83;;;7.70;99.90;;;;;;5047147;28;20292;-69
2023/12/16 09:20:30;;;;;;;7.73;3.63;;;7.70;99.90;;;;;;5048052;28;20593;-69
2023/12/16 09:22:57;;;;;;;10.17;3.77;;;7.70;99.90;;;;;;5050016;28;20204;-69
2023/12/16 09:25:24;;;;;;;7.27;3.20;;;7.80;99.90;;;;;;5068257;28;20207;-69
2023/12/16 09:27:51;;;;;;;6.40;3.60;;;7.90;99.90;;;;;;5067804;28;20244;-69
2023/12/16 09:30:19;;;;;;;9.47;4.70;;;7.90;99.90;;;;;;5068006;28;20294;-67
2023/12/16 09:32:45;;;;;;;8.37;3.53;;;7.90;99.90;;;;;;5048117;28;20685;-69
2023/12/16 09:35:14;;;;;;;10.87;4.47;;;8.00;99.90;;;;;;5047702;28;20283;-69
2023/12/16 09:37:41;;;;;;;11.00;3.93;;;7.90;99.90;;;;;;5035612;28;20200;-69
2023/12/16 09:40:09;;;;;;;8.23;3.00;;;8.00;99.90;;;;;;5029710;28;20287;-69
2023/12/16 09:42:37;;;;;;;9.13;3.37;;;8.10;99.90;;;;;;5047428;28;20224;-69
2023/12/16 09:45:04;;;;;;;7.40;3.30;;;8.10;99.90;;;;;;5043769;28;20200;-69
2023/12/16 09:47:32;;;;;;;11.10;2.80;;;8.20;99.90;;;;;;5027694;28;20641;-69
2023/12/16 09:50:00;;;;;;;8.30;3.50;;;8.20;99.90;;;;;;5036697;28;20423;-68
2023/12/16 09:52:28;;;;;;;4.27;3.10;;;8.20;99.90;;;;;;5046080;28;20223;-68
2023/12/16 09:54:55;;;;;;;8.20;2.73;;;8.20;99.90;;;;;;5047254;28;20227;-69
2023/12/16 09:57:23;;;;;;;9.70;3.10;;;8.20;99.90;;;;;;5047487;28;20214;-68
2023/12/16 09:59:53;;;;;;;7.23;3.47;;;8.20;99.90;;;;;;5047377;28;20211;-68
2023/12/16 10:02:26;;;;;;;4.13;2.87;;;8.20;99.90;;;;;;5047529;28;20218;-68
2023/12/16 10:04:56;;;;;;;8.60;3.43;;;8.10;99.90;;;;;;5047276;28;20224;-68
2023/12/16 10:07:23;;;;;;;7.83;3.77;;;8.20;99.90;;;;;;5046728;28;20244;-69
2023/12/16 10:09:51;;;;;;;6.30;3.00;;;8.20;99.90;;;;;;5026869;28;20204;-68
2023/12/16 10:12:19;;;;;;;8.67;2.80;;;8.20;99.90;;;;;;5025059;28;20299;-69
2023/12/16 10:14:47;;;;;;;7.53;3.00;;;8.30;99.90;;;;;;5025337;28;20581;-68
2023/12/16 10:17:16;;;;;;;6.83;3.73;;;8.40;99.90;;;;;;5025460;28;20398;-68
2023/12/16 10:19:44;;;;;;;8.90;2.93;;;8.50;99.90;;;;;;5027339;28;20292;-68
2023/12/16 10:22:13;;;;;;;6.43;3.17;;;8.60;99.90;;;;;;5045198;28;20540;-68
2023/12/16 10:24:41;;;;;;;7.63;3.50;;;8.70;99.90;;;;;;5045161;28;20208;-69
2023/12/16 10:27:11;;;;;;;7.47;2.90;;;8.90;99.90;;;;;;5039496;28;20296;-68
2023/12/16 10:29:40;;;;;;;8.60;3.37;;;8.90;99.90;;;;;;5034638;28;20621;-68
2023/12/16 10:32:09;;;;;;;6.10;2.73;;;9.10;99.90;;;;;;5031811;28;20731;-69
2023/12/16 10:34:36;;;;;;;11.30;3.70;;;9.20;99.90;;;;;;5025598;28;20319;-69
2023/12/16 10:37:04;;;;;;;7.50;3.40;;;9.20;99.90;;;;;;5027818;28;20298;-69
2023/12/16 10:39:31;;;;;;;6.67;2.90;;;9.20;99.90;;;;;;5025770;28;20215;-68
2023/12/16 10:41:58;;;;;;;11.00;3.50;;;9.30;99.90;;;;;;5042582;28;20239;-68
2023/12/16 10:44:27;;;;;;;7.70;3.70;;;9.30;99.90;;;;;;5044664;28;20777;-69
2023/12/16 10:46:55;;;;;;;7.83;3.47;;;9.50;99.90;;;;;;5027579;28;20323;-68
2023/12/16 10:49:28;;;;;;;7.73;3.43;;;9.50;99.90;;;;;;5024260;28;20224;-68
2023/12/16 10:52:04;;;;;;;6.33;2.60;;;9.60;99.90;;;;;;5025213;28;20719;-68
2023/12/16 10:54:37;;;;;;;4.73;3.10;;;9.50;99.90;;;;;;5039389;28;20626;-68
2023/12/16 10:57:16;;;;;;;8.87;2.80;;;9.50;99.90;;;;;;5044526;28;20786;-68
2023/12/16 10:59:55;;;;;;;8.87;2.90;;;9.40;99.90;;;;;;5025592;28;20263;-69
2023/12/16 11:02:26;;;;;;;8.30;2.97;;;9.40;99.90;;;;;;5027086;28;20307;-69
2023/12/16 11:04:58;;;;;;;9.87;2.80;;;9.40;99.90;;;;;;5044489;28;20940;-69
2023/12/16 11:07:28;;;;;;;9.23;2.87;;;9.40;99.90;;;;;;5040054;28;20327;-69
2023/12/16 11:09:56;;;;;;;5.80;3.23;;;9.50;99.90;;;;;;5034354;28;20202;-69
2023/12/16 11:12:23;;;;;;;10.90;3.20;;;9.60;99.90;;;;;;5029669;28;20208;-69
2023/12/16 11:14:55;;;;;;;11.17;3.63;;;9.70;99.90;;;;;;5029445;28;20698;-69
2023/12/16 11:17:28;;;;;;;9.03;3.27;;;9.70;99.90;;;;;;5031378;28;20651;-69
2023/12/16 11:19:59;;;;;;;10.13;3.10;;;9.60;99.90;;;;;;5030511;28;20258;-69
2023/12/16 11:22:26;;;;;;;10.63;3.40;;;9.60;99.90;;;;;;5034113;28;20366;-68
2023/12/16 11:24:53;;;;;;;9.30;2.77;;;9.50;99.90;;;;;;5046982;28;20208;-68
2023/12/16 11:27:21;;;;;;;8.03;2.90;;;9.60;99.90;;;;;;5048689;28;20241;-69
2023/12/16 11:29:48;;;;;;;8.60;2.80;;;9.60;99.90;;;;;;5048551;28;20211;-68
2023/12/16 11:32:16;;;;;;;7.97;2.80;;;9.60;99.90;;;;;;5048226;28;20222;-69
2023/12/16 11:34:44;;;;;;;9.17;2.90;;;9.60;99.90;;;;;;5048191;28;20214;-68
2023/12/16 11:37:12;;;;;;;8.67;2.80;;;9.50;99.90;;;;;;5048168;28;20295;-69
2023/12/16 11:39:40;;;;;;;5.00;2.37;;;9.50;99.90;;;;;;5048253;28;20211;-69
2023/12/16 11:42:08;;;;;;;8.33;2.60;;;9.50;99.90;;;;;;5047657;28;20242;-69
2023/12/16 11:44:49;;;;;;;8.47;2.80;;;9.50;99.90;;;;;;5028826;28;20213;-69
2023/12/16 11:47:22;;;;;;;8.37;2.93;;;9.50;99.90;;;;;;5028246;28;20212;-68
2023/12/16 11:49:49;;;;;;;7.20;3.00;;;9.40;99.90;;;;;;5043789;28;20224;-69
2023/12/16 11:52:18;;;;;;;4.57;2.70;;;9.40;99.90;;;;;;5047795;28;20236;-69
2023/12/16 11:54:45;;;;;;;9.97;3.40;;;9.40;99.90;;;;;;5048162;28;20258;-69
2023/12/16 11:57:12;;;;;;;8.10;2.83;;;9.40;99.90;;;;;;5037715;28;20205;-69
2023/12/16 11:59:39;;;;;;;9.10;3.07;;;9.40;99.90;;;;;;5027646;28;20299;-69
2023/12/16 12:02:07;;;;;;;6.20;2.93;;;9.30;99.90;;;;;;5027772;28;20323;-69
2023/12/16 12:04:37;;;;;;;8.03;2.60;;;9.30;99.90;;;;;;5027450;28;20227;-69
2023/12/16 12:07:04;;;;;;;8.40;2.93;;;9.30;99.90;;;;;;5045342;28;20269;-69
2023/12/16 12:09:31;;;;;;;7.47;2.77;;;9.20;99.90;;;;;;5047895;28;20284;-68
2023/12/16 12:11:58;;;;;;;7.30;2.50;;;9.30;99.90;;;;;;5047502;28;20239;-69
2023/12/16 12:14:26;;;;;;;9.10;2.80;;;9.20;99.90;;;;;;5047295;28;20749;-69
2023/12/16 12:16:53;;;;;;;6.23;3.00;;;9.20;99.90;;;;;;5047549;28;20208;-69
2023/12/16 12:19:20;;;;;;;7.97;3.40;;;9.20;99.90;;;;;;5046848;28;20283;-69
2023/12/16 12:21:50;;;;;;;6.93;3.00;;;9.10;99.90;;;;;;5047279;28;20701;-69
2023/12/16 12:24:17;;;;;;;8.77;2.67;;;9.10;99.90;;;;;;5047366;28;20690;-69
2023/12/16 12:26:44;;;;;;;7.43;2.90;;;9.10;99.90;;;;;;5047410;28;20293;-69
2023/12/16 12:29:11;;;;;;;6.40;2.97;;;9.10;99.90;;;;;;5046465;28;20208;-68
2023/12/16 12:31:45;;;;;;;5.27;2.53;;;9.00;99.90;;;;;;5047456;28;20208;-69
2023/12/16 12:34:18;;;;;;;8.07;2.80;;;9.00;99.90;;;;;;5046184;28;20211;-69
2023/12/16 12:36:45;;;;;;;5.80;2.30;;;9.00;99.90;;;;;;5045580;28;20274;-69
2023/12/16 12:39:15;;;;;;;6.83;2.57;;;9.00;99.90;;;;;;5046525;28;20212;-69
2023/12/16 12:41:42;;;;;;;8.97;3.53;;;8.90;99.90;;;;;;5046519;28;20247;-69
2023/12/16 12:44:10;;;;;;;7.13;2.80;;;9.00;99.90;;;;;;5043920;28;20200;-69